createdAt,value
2024-04-01T00:00:21.759Z,86995.00
2024-04-01T00:01:21.824Z,87011.00
2024-04-01T00:02:21.843Z,87001.00
2024-04-01T00:03:21.895Z,87024.00
2024-04-01T00:04:21.965Z,87008.00
2024-04-01T00:05:21.983Z,87015.00
2024-04-01T00:06:22.025Z,87008.00
2024-04-01T00:07:22.083Z,87011.00
2024-04-01T00:08:22.142Z,87010.00
2024-04-01T00:09:22.147Z,87003.00
2024-04-01T00:10:22.224Z,87006.00
2024-04-01T00:11:22.248Z,87007.00
2024-04-01T00:12:22.288Z,87005.00
2024-04-01T00:13:22.365Z,87007.00
2024-04-01T00:14:22.386Z,87008.00
2024-04-01T00:15:22.405Z,87001.00
2024-04-01T00:16:22.500Z,87002.00
2024-04-01T00:17:22.483Z,87009.00
2024-04-01T00:18:22.511Z,87025.00
2024-04-01T00:19:22.572Z,87026.00
2024-04-01T00:20:22.584Z,87025.00
2024-04-01T00:21:22.630Z,87026.00
2024-04-01T00:22:22.670Z,87030.00
2024-04-01T00:23:22.706Z,87033.00
2024-04-01T00:24:22.724Z,87037.00
2024-04-01T00:25:22.792Z,87039.00
2024-04-01T00:26:22.810Z,87045.00
2024-04-01T00:27:22.844Z,87041.00
2024-04-01T00:28:22.883Z,87048.00
2024-04-01T00:29:22.849Z,87039.00
2024-04-01T00:30:22.847Z,87038.00
2024-04-01T00:31:22.865Z,87038.00
2024-04-01T00:32:22.872Z,87039.00
2024-04-01T00:33:22.857Z,87040.00
2024-04-01T00:34:26.631Z,87038.00
2024-04-01T00:35:23.858Z,87038.00
2024-04-01T00:36:22.855Z,87040.00
2024-04-01T00:37:22.870Z,87038.00
2024-04-01T00:38:22.866Z,87025.00
2024-04-01T00:39:22.853Z,87031.00
2024-04-01T00:40:22.878Z,87027.00
2024-04-01T00:41:22.862Z,87006.00
2024-04-01T00:42:22.859Z,87018.00
2024-04-01T00:43:22.868Z,86995.00
2024-04-01T00:44:22.856Z,86988.00
2024-04-01T00:45:22.872Z,86994.00
2024-04-01T00:46:22.874Z,86988.00
2024-04-01T00:47:22.866Z,86990.00
2024-04-01T00:48:22.898Z,86987.00
2024-04-01T00:49:23.006Z,86964.00
2024-04-01T00:50:22.982Z,86960.00
2024-04-01T00:51:23.007Z,86961.00
2024-04-01T00:52:23.081Z,86958.00
2024-04-01T00:53:23.092Z,86959.00
2024-04-01T00:54:23.132Z,86954.00
2024-04-01T00:55:23.197Z,86944.00
2024-04-01T00:56:23.224Z,86954.00
2024-04-01T00:57:23.297Z,86943.00
2024-04-01T00:58:23.378Z,86934.00
2024-04-01T00:59:23.371Z,86928.00
2024-04-01T01:00:23.415Z,86929.00
2024-04-01T01:01:23.482Z,86945.00
2024-04-01T01:02:25.025Z,86936.00
2024-04-01T01:03:23.509Z,86931.00
2024-04-01T01:04:23.543Z,86954.00
2024-04-01T01:05:23.516Z,86930.00
2024-04-01T01:06:23.510Z,86928.00
2024-04-01T01:07:23.537Z,86928.00
2024-04-01T01:08:23.514Z,86934.00
2024-04-01T01:09:23.525Z,86933.00
2024-04-01T01:10:23.575Z,86932.00
2024-04-01T01:11:23.510Z,86927.00
2024-04-01T01:12:23.518Z,86923.00
2024-04-01T01:13:23.563Z,86924.00
2024-04-01T01:14:23.518Z,86918.00
2024-04-01T01:15:23.521Z,86911.00
2024-04-01T01:16:23.566Z,86898.00
2024-04-01T01:17:23.561Z,86921.00
2024-04-01T01:18:23.548Z,86899.00
2024-04-01T01:19:23.557Z,86890.00
2024-04-01T01:20:23.523Z,86890.00
2024-04-01T01:21:23.530Z,86875.00
2024-04-01T01:22:23.585Z,86882.00
2024-04-01T01:23:23.545Z,86888.00
2024-04-01T01:24:23.540Z,86901.00
2024-04-01T01:25:23.565Z,86896.00
2024-04-01T01:26:23.542Z,86875.00
2024-04-01T01:27:23.549Z,86892.00
2024-04-01T01:28:23.596Z,86903.00
2024-04-01T01:29:23.541Z,86921.00
2024-04-01T01:30:23.544Z,86922.00
2024-04-01T01:31:23.585Z,86912.00
2024-04-01T01:32:23.562Z,86921.00
2024-04-01T01:33:23.548Z,86916.00
2024-04-01T01:34:23.557Z,86905.00
2024-04-01T01:35:23.555Z,86903.00
2024-04-01T01:36:23.548Z,86900.00
2024-04-01T01:37:23.597Z,86903.00
2024-04-01T01:38:23.565Z,86909.00
2024-04-01T01:39:23.554Z,86906.00
2024-04-01T01:40:23.590Z,86923.00
2024-04-01T01:41:23.565Z,86911.00
2024-04-01T01:42:23.560Z,86917.00
2024-04-01T01:43:23.584Z,86915.00
2024-04-01T01:44:23.565Z,86909.00
2024-04-01T01:45:23.559Z,86910.00
2024-04-01T01:46:23.613Z,86921.00
2024-04-01T01:47:23.571Z,86930.00
2024-04-01T01:48:23.566Z,86917.00
2024-04-01T01:49:23.659Z,86914.00
2024-04-01T01:50:23.661Z,86933.00
2024-04-01T01:51:23.682Z,86909.00
2024-04-01T01:52:23.715Z,86926.00
2024-04-01T01:53:23.691Z,86919.00
2024-04-01T01:54:23.681Z,86915.00
2024-04-01T01:55:23.720Z,86909.00
2024-04-01T01:56:23.683Z,86925.00
2024-04-01T01:57:23.699Z,86936.00
2024-04-01T01:58:23.717Z,86943.00
2024-04-01T01:59:23.698Z,86935.00
2024-04-01T02:00:23.716Z,86925.00
2024-04-01T02:01:23.716Z,86929.00
2024-04-01T02:02:23.704Z,86921.00
2024-04-01T02:03:23.716Z,86923.00
2024-04-01T02:04:23.734Z,86928.00
2024-04-01T02:05:23.704Z,86922.00
2024-04-01T02:06:23.704Z,86919.00
2024-04-01T02:07:23.744Z,86926.00
2024-04-01T02:08:23.715Z,86925.00
2024-04-01T02:09:23.720Z,86919.00
2024-04-01T02:10:23.730Z,86919.00
2024-04-01T02:11:23.719Z,86927.00
2024-04-01T02:12:23.729Z,86932.00
2024-04-01T02:13:23.765Z,86928.00
2024-04-01T02:14:23.719Z,86929.00
2024-04-01T02:15:23.755Z,86927.00
2024-04-01T02:16:23.793Z,86935.00
2024-04-01T02:17:23.831Z,86925.00
2024-04-01T02:18:23.882Z,86934.00
2024-04-01T02:19:23.912Z,86944.00
2024-04-01T02:20:23.938Z,86941.00
2024-04-01T02:21:23.971Z,86945.00
2024-04-01T02:22:24.034Z,86942.00
2024-04-01T02:23:24.067Z,86953.00
2024-04-01T02:24:24.083Z,86951.00
2024-04-01T02:25:24.123Z,86948.00
2024-04-01T02:26:24.166Z,86950.00
2024-04-01T02:27:24.164Z,86949.00
2024-04-01T02:28:24.174Z,86953.00
2024-04-01T02:29:24.176Z,86954.00
2024-04-01T02:30:24.166Z,86952.00
2024-04-01T02:31:24.184Z,86952.00
2024-04-01T02:32:24.179Z,86948.00
2024-04-01T02:33:24.179Z,86952.00
2024-04-01T02:34:24.236Z,86948.00
2024-04-01T02:35:24.206Z,86944.00
2024-04-01T02:36:24.175Z,86936.00
2024-04-01T02:37:24.184Z,86930.00
2024-04-01T02:38:24.197Z,86935.00
2024-04-01T02:39:24.186Z,86925.00
2024-04-01T02:40:24.235Z,86913.00
2024-04-01T02:41:24.204Z,86908.00
2024-04-01T02:42:24.180Z,86908.00
2024-04-01T02:43:24.217Z,86912.00
2024-04-01T02:44:24.187Z,86909.00
2024-04-01T02:45:24.207Z,86904.00
2024-04-01T02:46:24.200Z,86900.00
2024-04-01T02:47:24.210Z,86901.00
2024-04-01T02:48:24.183Z,86898.00
2024-04-01T02:49:24.196Z,86909.00
2024-04-01T02:50:24.181Z,86907.00
2024-04-01T02:51:24.187Z,86902.00
2024-04-01T02:52:24.187Z,86891.00
2024-04-01T02:53:24.203Z,86886.00
2024-04-01T02:54:24.190Z,86885.00
2024-04-01T02:55:24.192Z,86879.00
2024-04-01T02:56:24.188Z,86875.00
2024-04-01T02:57:24.232Z,86870.00
2024-04-01T02:58:24.248Z,86865.00
2024-04-01T02:59:24.267Z,86856.00
2024-04-01T03:00:24.320Z,86846.00
2024-04-01T03:01:24.355Z,86847.00
2024-04-01T03:02:24.374Z,86842.00
2024-04-01T03:03:24.440Z,86839.00
2024-04-01T03:04:24.450Z,86848.00
2024-04-01T03:05:24.479Z,86843.00
2024-04-01T03:06:24.500Z,86833.00
2024-04-01T03:07:24.546Z,86828.00
2024-04-01T03:08:24.572Z,86831.00
2024-04-01T03:09:24.617Z,86815.00
2024-04-01T03:10:24.629Z,86813.00
2024-04-01T03:11:24.674Z,86812.00
2024-04-01T03:12:24.708Z,86813.00
2024-04-01T03:13:24.737Z,86810.00
2024-04-01T03:14:24.758Z,86811.00
2024-04-01T03:15:24.810Z,86816.00
2024-04-01T03:16:24.853Z,86825.00
2024-04-01T03:17:26.618Z,86829.00
2024-04-01T03:18:24.909Z,86830.00
2024-04-01T03:19:24.939Z,86830.00
2024-04-01T03:20:24.958Z,86813.00
2024-04-01T03:21:25.009Z,86810.00
2024-04-01T03:22:25.042Z,86815.00
2024-04-01T03:23:25.076Z,86812.00
2024-04-01T03:24:25.086Z,86806.00
2024-04-01T03:25:25.138Z,86802.00
2024-04-01T03:26:25.155Z,86793.00
2024-04-01T03:27:25.204Z,86783.00
2024-04-01T03:28:25.226Z,86785.00
2024-04-01T03:29:25.254Z,86786.00
2024-04-01T03:30:25.301Z,86790.00
2024-04-01T03:31:25.357Z,86794.00
2024-04-01T03:32:25.470Z,86796.00
2024-04-01T03:33:25.480Z,86805.00
2024-04-01T03:34:25.583Z,86800.00
2024-04-01T03:35:25.549Z,86805.00
2024-04-01T03:36:26.441Z,86799.00
2024-04-01T03:37:25.568Z,86791.00
2024-04-01T03:38:25.590Z,86784.00
2024-04-01T03:39:25.593Z,86787.00
2024-04-01T03:40:25.614Z,86779.00
2024-04-01T03:41:25.641Z,86781.00
2024-04-01T03:42:25.673Z,86778.00
2024-04-01T03:43:25.718Z,86781.00
2024-04-01T03:44:25.734Z,86779.00
2024-04-01T03:45:25.746Z,86765.00
2024-04-01T03:46:25.808Z,86769.00
2024-04-01T03:47:25.795Z,86767.00
2024-04-01T03:48:25.844Z,86765.00
2024-04-01T03:49:25.875Z,86760.00
2024-04-01T03:50:25.907Z,86763.00
2024-04-01T03:51:25.926Z,86773.00
2024-04-01T03:52:25.973Z,86783.00
2024-04-01T03:53:26.014Z,86783.00
2024-04-01T03:54:26.050Z,86788.00
2024-04-01T03:55:26.100Z,86799.00
2024-04-01T03:56:26.127Z,86803.00
2024-04-01T03:57:26.176Z,86794.00
2024-04-01T03:58:26.251Z,86792.00
2024-04-01T03:59:26.237Z,86777.00
2024-04-01T04:00:26.295Z,86769.00
2024-04-01T04:01:26.372Z,86773.00
2024-04-01T04:02:26.367Z,86778.00
2024-04-01T04:03:26.390Z,86775.00
2024-04-01T04:04:26.411Z,86774.00
2024-04-01T04:05:26.377Z,86782.00
2024-04-01T04:06:26.386Z,86782.00
2024-04-01T04:07:26.380Z,86783.00
2024-04-01T04:08:26.376Z,86783.00
2024-04-01T04:09:26.372Z,86786.00
2024-04-01T04:10:26.400Z,86793.00
2024-04-01T04:11:26.375Z,86793.00
2024-04-01T04:12:26.370Z,86784.00
2024-04-01T04:13:26.399Z,86785.00
2024-04-01T04:14:26.406Z,86784.00
2024-04-01T04:15:26.465Z,86788.00
2024-04-01T04:16:26.534Z,86787.00
2024-04-01T04:17:26.626Z,86778.00
2024-04-01T04:18:26.652Z,86783.00
2024-04-01T04:19:26.752Z,86777.00
2024-04-01T04:20:26.798Z,86783.00
2024-04-01T04:21:26.837Z,86788.00
2024-04-01T04:22:34.050Z,86777.00
2024-04-01T04:23:34.045Z,86772.00
2024-04-01T04:24:34.042Z,86777.00
2024-04-01T04:25:34.054Z,86782.00
2024-04-01T04:26:34.042Z,86782.00
2024-04-01T04:27:34.049Z,86777.00
2024-04-01T04:28:34.075Z,86778.00
2024-04-01T04:29:34.050Z,86768.00
2024-04-01T04:30:34.048Z,86768.00
2024-04-01T04:31:41.248Z,86759.00
2024-04-01T04:32:41.327Z,86755.00
2024-04-01T04:33:41.244Z,86755.00
2024-04-01T04:34:41.239Z,86766.00
2024-04-01T04:35:41.262Z,86765.00
2024-04-01T04:36:41.266Z,86763.00
2024-04-01T04:37:41.252Z,86759.00
2024-04-01T04:38:41.247Z,86757.00
2024-04-01T04:39:41.255Z,86760.00
2024-04-01T04:40:41.254Z,86758.00
2024-04-01T04:41:41.267Z,86759.00
2024-04-01T04:42:41.288Z,86759.00
2024-04-01T04:43:41.275Z,86760.00
2024-04-01T04:44:41.261Z,86756.00
2024-04-01T04:45:41.274Z,86758.00
2024-04-01T04:46:41.267Z,86762.00
2024-04-01T04:47:41.256Z,86769.00
2024-04-01T04:48:41.274Z,86775.00
2024-04-01T04:49:41.269Z,86780.00
2024-04-01T04:50:41.265Z,86777.00
2024-04-01T04:51:41.275Z,86769.00
2024-04-01T04:52:41.337Z,86762.00
2024-04-01T04:53:41.272Z,86761.00
2024-04-01T04:54:41.265Z,86757.00
2024-04-01T04:55:41.273Z,86756.00
2024-04-01T04:56:41.269Z,86759.00
2024-04-01T04:57:41.270Z,86761.00
2024-04-01T04:58:41.292Z,86760.00
2024-04-01T04:59:41.275Z,86763.00
2024-04-01T05:00:41.293Z,86761.00
2024-04-01T05:01:41.288Z,86764.00
2024-04-01T05:02:42.744Z,86760.00
2024-04-01T05:03:41.278Z,86753.00
2024-04-01T05:04:41.295Z,86750.00
2024-04-01T05:05:41.294Z,86751.00
2024-04-01T05:06:41.306Z,86750.00
2024-04-01T05:07:41.294Z,86758.00
2024-04-01T05:08:41.293Z,86755.00
2024-04-01T05:09:41.302Z,86760.00
2024-04-01T05:10:41.309Z,86764.00
2024-04-01T05:11:41.324Z,86764.00
2024-04-01T05:12:41.417Z,86765.00
2024-04-01T05:13:41.482Z,86759.00
2024-04-01T05:14:41.543Z,86763.00
2024-04-01T05:15:41.613Z,86757.00
2024-04-01T05:16:41.668Z,86763.00
2024-04-01T05:17:41.728Z,86763.00
2024-04-01T05:18:41.798Z,86762.00
2024-04-01T05:19:41.880Z,86761.00
2024-04-01T05:20:41.932Z,86757.00
2024-04-01T05:21:42.000Z,86754.00
2024-04-01T05:22:42.065Z,86758.00
2024-04-01T05:23:42.126Z,86761.00
2024-04-01T05:24:42.208Z,86759.00
2024-04-01T05:25:42.262Z,86763.00
2024-04-01T05:26:42.332Z,86764.00
2024-04-01T05:27:42.407Z,86762.00
2024-04-01T05:28:42.493Z,86765.00
2024-04-01T05:29:42.551Z,86757.00
2024-04-01T05:30:42.607Z,86757.00
2024-04-01T05:31:42.670Z,86755.00
2024-04-01T05:32:42.741Z,86754.00
2024-04-01T05:33:42.799Z,86755.00
2024-04-01T05:34:42.873Z,86758.00
2024-04-01T05:35:42.932Z,86752.00
2024-04-01T05:36:42.994Z,86744.00
2024-04-01T05:37:43.059Z,86745.00
2024-04-01T05:38:43.145Z,86749.00
2024-04-01T05:39:43.206Z,86752.00
2024-04-01T05:40:43.277Z,86752.00
2024-04-01T05:41:43.343Z,86758.00
2024-04-01T05:42:43.418Z,86758.00
2024-04-01T05:43:43.494Z,86766.00
2024-04-01T05:44:43.555Z,86775.00
2024-04-01T05:45:43.642Z,86779.00
2024-04-01T05:46:43.676Z,86776.00
2024-04-01T05:47:43.782Z,86771.00
2024-04-01T05:48:43.813Z,86767.00
2024-04-01T05:49:43.896Z,86760.00
2024-04-01T05:50:43.955Z,86762.00
2024-04-01T05:51:44.020Z,86761.00
2024-04-01T05:52:44.087Z,86761.00
2024-04-01T05:53:44.161Z,86760.00
2024-04-01T05:54:44.231Z,86759.00
2024-04-01T05:55:44.302Z,86761.00
2024-04-01T05:56:44.371Z,86757.00
2024-04-01T05:57:44.426Z,86762.00
2024-04-01T05:58:44.517Z,86768.00
2024-04-01T05:59:44.525Z,86761.00
2024-04-01T06:00:44.581Z,86772.00
2024-04-01T06:01:44.621Z,86774.00
2024-04-01T06:02:44.705Z,86766.00
2024-04-01T06:03:44.738Z,86757.00
2024-04-01T06:04:44.798Z,86757.00
2024-04-01T06:05:44.875Z,86766.00
2024-04-01T06:06:44.949Z,86767.00
2024-04-01T06:07:44.997Z,86768.00
2024-04-01T06:08:45.089Z,86772.00
2024-04-01T06:09:45.139Z,86774.00
2024-04-01T06:10:45.209Z,86774.00
2024-04-01T06:11:45.278Z,86774.00
2024-04-01T06:12:45.367Z,86777.00
2024-04-01T06:13:45.429Z,86781.00
2024-04-01T06:14:45.485Z,86781.00
2024-04-01T06:15:45.553Z,86775.00
2024-04-01T06:16:45.606Z,86765.00
2024-04-01T06:17:45.639Z,86754.00
2024-04-01T06:18:45.720Z,86752.00
2024-04-01T06:19:45.732Z,86751.00
2024-04-01T06:20:45.740Z,86747.00
2024-04-01T06:21:45.767Z,86747.00
2024-04-01T06:22:45.797Z,86739.00
2024-04-01T06:23:45.801Z,86727.00
2024-04-01T06:24:45.795Z,86714.00
2024-04-01T06:25:45.820Z,86696.00
2024-04-01T06:26:45.835Z,86683.00
2024-04-01T06:27:45.848Z,86668.00
2024-04-01T06:28:45.886Z,86669.00
2024-04-01T06:29:45.867Z,86671.00
2024-04-01T06:30:45.902Z,86671.00
2024-04-01T06:31:45.918Z,86649.00
2024-04-01T06:32:45.943Z,86641.00
2024-04-01T06:33:45.947Z,86644.00
2024-04-01T06:34:45.961Z,86648.00
2024-04-01T06:35:45.999Z,86670.00
2024-04-01T06:36:46.008Z,86679.00
2024-04-01T06:37:46.001Z,86667.00
2024-04-01T06:38:46.051Z,86652.00
2024-04-01T06:39:46.057Z,86646.00
2024-04-01T06:40:46.104Z,86653.00
2024-04-01T06:41:46.184Z,86652.00
2024-04-01T06:42:46.276Z,86644.00
2024-04-01T06:43:46.341Z,86632.00
2024-04-01T06:44:46.401Z,86632.00
2024-04-01T06:45:46.461Z,86650.00
2024-04-01T06:46:46.516Z,86661.00
2024-04-01T06:47:46.598Z,86679.00
2024-04-01T06:48:46.654Z,86689.00
2024-04-01T06:49:46.719Z,86704.00
2024-04-01T06:50:46.804Z,86710.00
2024-04-01T06:51:46.859Z,86708.00
2024-04-01T06:52:46.937Z,86715.00
2024-04-01T06:53:47.023Z,86727.00
2024-04-01T06:54:47.073Z,86733.00
2024-04-01T06:55:47.145Z,86743.00
2024-04-01T06:56:47.219Z,86742.00
2024-04-01T06:57:47.293Z,86737.00
2024-04-01T06:58:47.345Z,86728.00
2024-04-01T06:59:47.425Z,86724.00
2024-04-01T07:00:47.459Z,86726.00
2024-04-01T07:01:47.496Z,86726.00
2024-04-01T07:02:47.550Z,86720.00
2024-04-01T07:03:47.605Z,86722.00
2024-04-01T07:04:47.648Z,86729.00
2024-04-01T07:05:47.670Z,86728.00
2024-04-01T07:06:47.681Z,86728.00
2024-04-01T07:07:47.732Z,86717.00
2024-04-01T07:08:47.783Z,86706.00
2024-04-01T07:09:47.828Z,86700.00
2024-04-01T07:10:47.905Z,86697.00
2024-04-01T07:11:47.914Z,86695.00
2024-04-01T07:12:47.942Z,86700.00
2024-04-01T07:13:47.973Z,86693.00
2024-04-01T07:14:47.989Z,86699.00
2024-04-01T07:15:48.033Z,86702.00
2024-04-01T07:16:48.032Z,86712.00
2024-04-01T07:17:48.044Z,86713.00
2024-04-01T07:18:48.050Z,86713.00
2024-04-01T07:19:48.064Z,86721.00
2024-04-01T07:20:48.068Z,86721.00
2024-04-01T07:21:48.072Z,86705.00
2024-04-01T07:22:48.099Z,86708.00
2024-04-01T07:23:48.114Z,86705.00
2024-04-01T07:24:48.122Z,86705.00
2024-04-01T07:25:48.134Z,86708.00
2024-04-01T07:26:48.156Z,86712.00
2024-04-01T07:27:48.159Z,86709.00
2024-04-01T07:28:48.184Z,86701.00
2024-04-01T07:29:48.190Z,86698.00
2024-04-01T07:30:48.218Z,86702.00
2024-04-01T07:31:48.204Z,86711.00
2024-04-01T07:32:48.232Z,86703.00
2024-04-01T07:33:48.260Z,86705.00
2024-04-01T07:34:48.253Z,86712.00
2024-04-01T07:35:48.256Z,86715.00
2024-04-01T07:36:48.265Z,86724.00
2024-04-01T07:37:48.268Z,86728.00
2024-04-01T07:38:48.281Z,86718.00
2024-04-01T07:39:48.293Z,86726.00
2024-04-01T07:40:48.290Z,86728.00
2024-04-01T07:41:48.303Z,86732.00
2024-04-01T07:42:48.303Z,86716.00
2024-04-01T07:43:48.336Z,86729.00
2024-04-01T07:44:48.326Z,86733.00
2024-04-01T07:45:48.332Z,86740.00
2024-04-01T07:46:48.345Z,86739.00
2024-04-01T07:47:48.357Z,86750.00
2024-04-01T07:48:48.391Z,86754.00
2024-04-01T07:49:48.360Z,86749.00
2024-04-01T07:50:48.365Z,86765.00
2024-04-01T07:51:48.361Z,86775.00
2024-04-01T07:52:48.390Z,86775.00
2024-04-01T07:53:48.369Z,86759.00
2024-04-01T07:54:48.375Z,86758.00
2024-04-01T07:55:48.385Z,86761.00
2024-04-01T07:56:48.386Z,86766.00
2024-04-01T07:57:48.371Z,86768.00
2024-04-01T07:58:48.377Z,86753.00
2024-04-01T07:59:48.380Z,86765.00
2024-04-01T08:00:48.377Z,86775.00
2024-04-01T08:01:48.391Z,86771.00
2024-04-01T08:02:48.390Z,86775.00
2024-04-01T08:03:48.398Z,86781.00
2024-04-01T08:04:48.835Z,86776.00
2024-04-01T08:05:48.376Z,86778.00
2024-04-01T08:06:48.385Z,86778.00
2024-04-01T08:07:48.389Z,86766.00
2024-04-01T08:08:48.397Z,86772.00
2024-04-01T08:09:48.386Z,86774.00
2024-04-01T08:10:48.427Z,86783.00
2024-04-01T08:11:48.405Z,86780.00
2024-04-01T08:12:48.393Z,86789.00
2024-04-01T08:13:48.399Z,86781.00
2024-04-01T08:14:48.406Z,86775.00
2024-04-01T08:15:48.406Z,86781.00
2024-04-01T08:16:48.411Z,86787.00
2024-04-01T08:17:48.417Z,86782.00
2024-04-01T08:18:48.425Z,86790.00
2024-04-01T08:19:48.406Z,86788.00
2024-04-01T08:20:48.404Z,86779.00
2024-04-01T08:21:48.417Z,86777.00
2024-04-01T08:22:48.439Z,86777.00
2024-04-01T08:23:48.427Z,86772.00
2024-04-01T08:24:48.416Z,86772.00
2024-04-01T08:25:48.421Z,86776.00
2024-04-01T08:26:48.497Z,86776.00
2024-04-01T08:27:48.534Z,86771.00
2024-04-01T08:28:48.600Z,86772.00
2024-04-01T08:29:48.669Z,86773.00
2024-04-01T08:30:48.729Z,86778.00
2024-04-01T08:31:48.803Z,86778.00
2024-04-01T08:32:48.910Z,86774.00
2024-04-01T08:33:48.916Z,86772.00
2024-04-01T08:34:48.903Z,86767.00
2024-04-01T08:35:48.919Z,86763.00
2024-04-01T08:36:48.922Z,86756.00
2024-04-01T08:37:48.924Z,86753.00
2024-04-01T08:38:48.932Z,86759.00
2024-04-01T08:39:49.306Z,86772.00
2024-04-01T08:40:48.944Z,86773.00
2024-04-01T08:41:48.934Z,86766.00
2024-04-01T08:42:48.957Z,86766.00
2024-04-01T08:43:48.966Z,86769.00
2024-04-01T08:44:48.942Z,86769.00
2024-04-01T08:45:49.024Z,86771.00
2024-04-01T08:46:49.036Z,86780.00
2024-04-01T08:47:49.174Z,86781.00
2024-04-01T08:48:49.151Z,86790.00
2024-04-01T08:49:49.193Z,86798.00
2024-04-01T08:50:49.251Z,86803.00
2024-04-01T08:51:49.289Z,86806.00
2024-04-01T08:52:49.359Z,86808.00
2024-04-01T08:53:49.392Z,86814.00
2024-04-01T08:54:49.444Z,86812.00
2024-04-01T08:55:49.495Z,86817.00
2024-04-01T08:56:49.580Z,86828.00
2024-04-01T08:57:49.602Z,86825.00
2024-04-01T08:58:49.570Z,86827.00
2024-04-01T08:59:49.594Z,86828.00
2024-04-01T09:00:49.582Z,86831.00
2024-04-01T09:01:49.585Z,86836.00
2024-04-01T09:02:49.577Z,86837.00
2024-04-01T09:03:49.595Z,86842.00
2024-04-01T09:04:49.582Z,86846.00
2024-04-01T09:05:49.576Z,86843.00
2024-04-01T09:06:49.569Z,86846.00
2024-04-01T09:07:49.586Z,86841.00
2024-04-01T09:08:49.577Z,86833.00
2024-04-01T09:09:49.596Z,86844.00
2024-04-01T09:10:49.591Z,86840.00
2024-04-01T09:11:49.575Z,86849.00
2024-04-01T09:12:49.580Z,86849.00
2024-04-01T09:13:49.589Z,86845.00
2024-04-01T09:14:49.593Z,86842.00
2024-04-01T09:15:49.602Z,86840.00
2024-04-01T09:16:49.605Z,86846.00
2024-04-01T09:17:49.589Z,86846.00
2024-04-01T09:18:49.606Z,86845.00
2024-04-01T09:19:49.615Z,86850.00
2024-04-01T09:20:49.582Z,86854.00
2024-04-01T09:21:49.592Z,86852.00
2024-04-01T09:22:49.595Z,86859.00
2024-04-01T09:23:49.628Z,86860.00
2024-04-01T09:24:49.614Z,86860.00
2024-04-01T09:25:49.660Z,86858.00
2024-04-01T09:26:49.725Z,86865.00
2024-04-01T09:27:49.731Z,86869.00
2024-04-01T09:28:49.740Z,86870.00
2024-04-01T09:29:49.749Z,86860.00
2024-04-01T09:30:49.737Z,86867.00
2024-04-01T09:31:49.751Z,86860.00
2024-04-01T09:32:49.750Z,86860.00
2024-04-01T09:33:49.751Z,86864.00
2024-04-01T09:34:49.744Z,86865.00
2024-04-01T09:35:51.715Z,86864.00
2024-04-01T09:36:49.752Z,86864.00
2024-04-01T09:37:49.765Z,86864.00
2024-04-01T09:38:49.792Z,86867.00
2024-04-01T09:39:49.815Z,86869.00
2024-04-01T09:40:49.822Z,86867.00
2024-04-01T09:41:49.865Z,86871.00
2024-04-01T09:42:49.899Z,86879.00
2024-04-01T09:43:51.954Z,86879.00
2024-04-01T09:44:49.936Z,86887.00
2024-04-01T09:45:49.952Z,86883.00
2024-04-01T09:46:49.933Z,86887.00
2024-04-01T09:47:49.936Z,86891.00
2024-04-01T09:48:49.958Z,86896.00
2024-04-01T09:49:49.940Z,86901.00
2024-04-01T09:50:49.944Z,86890.00
2024-04-01T09:51:49.944Z,86886.00
2024-04-01T09:52:49.964Z,86890.00
2024-04-01T09:53:49.958Z,86887.00
2024-04-01T09:54:49.955Z,86883.00
2024-04-01T09:55:49.960Z,86872.00
2024-04-01T09:56:49.951Z,86873.00
2024-04-01T09:57:49.948Z,86865.00
2024-04-01T09:58:49.966Z,86862.00
2024-04-01T09:59:49.963Z,86867.00
2024-04-01T10:00:49.954Z,86862.00
2024-04-01T10:01:49.951Z,86862.00
2024-04-01T10:02:49.942Z,86862.00
2024-04-01T10:03:49.953Z,86861.00
2024-04-01T10:04:49.952Z,86857.00
2024-04-01T10:05:49.947Z,86857.00
2024-04-01T10:06:49.963Z,86856.00
2024-04-01T10:07:49.960Z,86852.00
2024-04-01T10:08:49.983Z,86851.00
2024-04-01T10:09:49.967Z,86850.00
2024-04-01T10:10:49.956Z,86844.00
2024-04-01T10:11:49.958Z,86835.00
2024-04-01T10:12:49.954Z,86832.00
2024-04-01T10:13:49.975Z,86834.00
2024-04-01T10:14:49.960Z,86833.00
2024-04-01T10:15:51.142Z,86838.00
2024-04-01T10:16:50.007Z,86840.00
2024-04-01T10:17:49.993Z,86842.00
2024-04-01T10:18:49.989Z,86846.00
2024-04-01T10:19:50.002Z,86848.00
2024-04-01T10:20:49.996Z,86851.00
2024-04-01T10:21:50.007Z,86849.00
2024-04-01T10:22:49.997Z,86857.00
2024-04-01T10:23:50.017Z,86859.00
2024-04-01T10:24:49.992Z,86860.00
2024-04-01T10:25:50.017Z,86858.00
2024-04-01T10:26:50.002Z,86864.00
2024-04-01T10:27:50.005Z,86872.00
2024-04-01T10:28:50.028Z,86876.00
2024-04-01T10:29:50.032Z,86882.00
2024-04-01T10:30:50.002Z,86890.00
2024-04-01T10:31:50.020Z,86891.00
2024-04-01T10:32:50.049Z,86887.00
2024-04-01T10:33:50.028Z,86885.00
2024-04-01T10:35:00.757Z,86882.00
2024-04-01T10:35:51.016Z,86882.00
2024-04-01T10:36:50.020Z,86893.00
2024-04-01T10:37:50.039Z,86899.00
2024-04-01T10:38:50.031Z,86898.00
2024-04-01T10:39:50.024Z,86903.00
2024-04-01T10:40:50.024Z,86909.00
2024-04-01T10:41:50.026Z,86907.00
2024-04-01T10:42:50.044Z,86911.00
2024-04-01T10:43:50.117Z,86918.00
2024-04-01T10:44:50.173Z,86922.00
2024-04-01T10:45:50.232Z,86923.00
2024-04-01T10:46:50.287Z,86927.00
2024-04-01T10:47:50.354Z,86935.00
2024-04-01T10:48:50.398Z,86931.00
2024-04-01T10:49:50.458Z,86930.00
2024-04-01T10:50:50.459Z,86934.00
2024-04-01T10:51:50.478Z,86941.00
2024-04-01T10:52:50.506Z,86945.00
2024-04-01T10:53:50.470Z,86945.00
2024-04-01T10:54:50.461Z,86944.00
2024-04-01T10:55:50.482Z,86948.00
2024-04-01T10:56:50.476Z,86955.00
2024-04-01T10:57:50.475Z,86948.00
2024-04-01T10:58:50.532Z,86946.00
2024-04-01T10:59:50.554Z,86948.00
2024-04-01T11:00:50.604Z,86939.00
2024-04-01T11:01:50.693Z,86939.00
2024-04-01T11:02:50.741Z,86932.00
2024-04-01T11:03:50.777Z,86927.00
2024-04-01T11:04:50.841Z,86919.00
2024-04-01T11:05:50.992Z,86924.00
2024-04-01T11:06:50.941Z,86925.00
2024-04-01T11:07:50.999Z,86930.00
2024-04-01T11:08:51.042Z,86917.00
2024-04-01T11:09:51.091Z,86921.00
2024-04-01T11:10:51.149Z,86922.00
2024-04-01T11:11:51.200Z,86923.00
2024-04-01T11:12:51.256Z,86925.00
2024-04-01T11:13:51.307Z,86925.00
2024-04-01T11:14:51.357Z,86926.00
2024-04-01T11:15:51.421Z,86929.00
2024-04-01T11:16:51.462Z,86932.00
2024-04-01T11:17:51.536Z,86934.00
2024-04-01T11:18:51.603Z,86934.00
2024-04-01T11:19:51.663Z,86927.00
2024-04-01T11:20:51.690Z,86943.00
2024-04-01T11:21:51.768Z,86957.00
2024-04-01T11:22:51.802Z,86952.00
2024-04-01T11:23:51.885Z,86953.00
2024-04-01T11:24:51.933Z,86953.00
2024-04-01T11:25:51.970Z,86954.00
2024-04-01T11:26:52.050Z,86953.00
2024-04-01T11:27:52.085Z,86941.00
2024-04-01T11:28:52.164Z,86941.00
2024-04-01T11:29:52.201Z,86953.00
2024-04-01T11:30:52.331Z,86955.00
2024-04-01T11:31:52.370Z,86947.00
2024-04-01T11:32:52.358Z,86945.00
2024-04-01T11:33:52.428Z,86944.00
2024-04-01T11:34:52.485Z,86943.00
2024-04-01T11:35:52.558Z,86937.00
2024-04-01T11:36:52.581Z,86940.00
2024-04-01T11:37:52.629Z,86944.00
2024-04-01T11:38:52.693Z,86940.00
2024-04-01T11:39:52.743Z,86936.00
2024-04-01T11:40:52.827Z,86936.00
2024-04-01T11:41:52.855Z,86931.00
2024-04-01T11:42:52.916Z,86927.00
2024-04-01T11:43:52.970Z,86928.00
2024-04-01T11:44:53.030Z,86925.00